createdAt,value
2019-06-15T00:02:03.665Z,101468.98
2019-06-15T00:05:12.492Z,101461.06
2019-06-15T00:08:21.114Z,101460.48
2019-06-15T00:11:29.815Z,101453.77
2019-06-15T00:14:38.441Z,101451.10
2019-06-15T00:17:56.355Z,101436.79
2019-06-15T00:21:03.590Z,101422.83
2019-06-15T00:24:12.407Z,101406.60
2019-06-15T00:27:21.009Z,101388.84
2019-06-15T00:30:29.661Z,101366.24
2019-06-15T00:33:38.654Z,101375.56
2019-06-15T00:36:47.254Z,101370.77
2019-06-15T00:39:55.972Z,101361.86
2019-06-15T00:43:04.624Z,101370.19
2019-06-15T00:46:13.414Z,101357.75
2019-06-15T00:49:22.060Z,101351.17
2019-06-15T00:52:30.747Z,101345.53
2019-06-15T00:55:39.869Z,101345.67
2019-06-15T00:58:48.487Z,101355.80
2019-06-15T01:01:57.115Z,101347.39
2019-06-15T01:05:06.601Z,101352.87
2019-06-15T01:08:15.687Z,101336.05
2019-06-15T01:11:24.666Z,101329.70
2019-06-15T01:14:34.084Z,101324.39
2019-06-15T01:17:43.928Z,101315.86
2019-06-15T01:21:01.975Z,101306.04
2019-06-15T01:24:11.006Z,101302.47
2019-06-15T01:27:20.143Z,101295.74
2019-06-15T01:30:28.760Z,101285.05
2019-06-15T01:33:46.702Z,101272.55
2019-06-15T01:36:55.424Z,101271.84
2019-06-15T01:40:04.406Z,101263.42
2019-06-15T01:43:26.278Z,101260.87
2019-06-15T01:46:44.339Z,101258.23
2019-06-15T01:49:53.168Z,101260.64
2019-06-15T01:53:01.898Z,101249.38
2019-06-15T01:56:11.945Z,101227.78
2019-06-15T01:59:20.620Z,101231.27
2019-06-15T02:02:29.382Z,101226.70
2019-06-15T02:05:38.856Z,101221.52
2019-06-15T02:08:56.975Z,101218.61
2019-06-15T02:12:05.803Z,101217.35
2019-06-15T02:15:15.633Z,101202.66
2019-06-15T02:18:26.072Z,101197.17
2019-06-15T02:21:34.823Z,101191.93
2019-06-15T02:24:43.558Z,101199.62
2019-06-15T02:27:52.704Z,101218.56
2019-06-15T02:31:00.054Z,101201.59
2019-06-15T02:34:08.784Z,101201.05
2019-06-15T02:37:17.527Z,101198.38
2019-06-15T02:40:26.314Z,101198.91
2019-06-15T02:43:35.325Z,101196.80
2019-06-15T02:46:44.032Z,101187.02
2019-06-15T02:49:52.889Z,101188.45
2019-06-15T02:53:01.705Z,101178.86
2019-06-15T02:56:10.380Z,101174.23
2019-06-15T02:59:19.209Z,101173.44
2019-06-15T03:02:28.967Z,101171.25
2019-06-15T03:05:38.201Z,101178.08
2019-06-15T03:08:46.970Z,101181.39
2019-06-15T03:11:55.863Z,101183.89
2019-06-15T03:15:05.095Z,101182.81
2019-06-15T03:18:14.907Z,101181.39
2019-06-15T03:21:23.587Z,101180.38
2019-06-15T03:24:32.281Z,101179.00
2019-06-15T03:27:41.133Z,101175.13
2019-06-15T03:30:49.801Z,101181.14
2019-06-15T03:33:59.010Z,101185.55
2019-06-15T03:37:08.202Z,101191.09
2019-06-15T03:40:18.361Z,101200.34
2019-06-15T03:43:27.246Z,101221.80
2019-06-15T03:46:35.869Z,101239.62
2019-06-15T03:49:44.841Z,101252.55
2019-06-15T03:52:53.564Z,101266.80
2019-06-15T03:56:02.405Z,101274.96
2019-06-15T03:59:11.145Z,101266.97
2019-06-15T04:02:20.075Z,101262.41
2019-06-15T04:05:29.665Z,101259.74
2019-06-15T04:08:38.311Z,101261.89
2019-06-15T04:11:57.818Z,101260.28
2019-06-15T04:15:06.720Z,101232.16
2019-06-15T04:18:25.035Z,101202.91
2019-06-15T04:21:33.688Z,101167.31
2019-06-15T04:24:42.443Z,101163.64
2019-06-15T04:27:51.363Z,101182.49
2019-06-15T04:31:00.084Z,101169.72
2019-06-15T04:34:08.689Z,101149.87
2019-06-15T04:37:17.414Z,101137.43
2019-06-15T04:40:26.402Z,101122.09
2019-06-15T04:43:35.219Z,101132.48
2019-06-15T04:46:43.915Z,101174.42
2019-06-15T04:49:52.495Z,101185.21
2019-06-15T04:53:01.171Z,101189.73
2019-06-15T04:56:09.853Z,101181.17
2019-06-15T04:59:18.543Z,101188.91
2019-06-15T05:02:27.586Z,101184.27
2019-06-15T05:05:37.293Z,101174.12
2019-06-15T05:08:55.409Z,101173.22
2019-06-15T05:12:03.056Z,101155.52
2019-06-15T05:15:12.209Z,101146.45
2019-06-15T05:18:21.033Z,101143.79
2019-06-15T05:21:29.808Z,101113.41
2019-06-15T05:24:38.527Z,101121.19
2019-06-15T05:27:47.417Z,101124.34
2019-06-15T05:30:56.338Z,101129.39
2019-06-15T05:34:04.964Z,101138.81
2019-06-15T05:37:13.634Z,101122.48
2019-06-15T05:40:22.888Z,101125.86
2019-06-15T05:43:31.966Z,101107.11
2019-06-15T05:46:40.605Z,101084.89
2019-06-15T05:49:49.325Z,101088.99
2019-06-15T05:52:57.986Z,101099.77
2019-06-15T05:56:06.861Z,101098.86
2019-06-15T05:59:15.531Z,101086.72
2019-06-15T06:02:24.928Z,101077.68
2019-06-15T06:05:33.636Z,101086.08
2019-06-15T06:08:42.260Z,101052.62
2019-06-15T06:11:51.158Z,100978.30
2019-06-15T06:14:59.932Z,100892.38
2019-06-15T06:18:08.579Z,100851.61
2019-06-15T06:21:17.236Z,100835.58
2019-06-15T06:24:25.907Z,100864.50
2019-06-15T06:27:36.824Z,100926.08
2019-06-15T06:30:45.182Z,100983.67
2019-06-15T06:33:54.352Z,100963.33
2019-06-15T06:37:02.973Z,100931.95
2019-06-15T06:40:12.542Z,100972.00
2019-06-15T06:43:30.457Z,101008.25
2019-06-15T06:46:39.286Z,101023.17
2019-06-15T06:49:48.013Z,101022.70
2019-06-15T06:52:56.784Z,100990.70
2019-06-15T06:56:05.507Z,100986.92
2019-06-15T06:59:14.207Z,100962.48
2019-06-15T07:02:22.946Z,100968.94
2019-06-15T07:05:31.753Z,100985.34
2019-06-15T07:08:40.373Z,100999.95
2019-06-15T07:11:49.041Z,100992.92
2019-06-15T07:14:57.757Z,100992.69
2019-06-15T07:18:05.025Z,100970.43
2019-06-15T07:21:13.720Z,100966.26
2019-06-15T07:24:22.424Z,100964.38
2019-06-15T07:27:31.179Z,100952.89
2019-06-15T07:30:40.015Z,100948.13
2019-06-15T07:33:48.766Z,100937.15
2019-06-15T07:36:57.467Z,100936.31
2019-06-15T07:40:15.195Z,100946.88
2019-06-15T07:43:23.961Z,100939.91
2019-06-15T07:46:32.606Z,100923.29
2019-06-15T07:49:41.305Z,100916.36
2019-06-15T07:52:50.299Z,100898.33
2019-06-15T07:56:03.291Z,100891.48
2019-06-15T07:59:11.270Z,100892.64
2019-06-15T08:02:19.941Z,100902.17
2019-06-15T08:05:28.546Z,100899.19
2019-06-15T08:08:37.323Z,100924.43
2019-06-15T08:11:46.017Z,100918.55
2019-06-15T08:14:54.634Z,100920.40
2019-06-15T08:18:03.616Z,100921.97
2019-06-15T08:21:12.513Z,100929.91
2019-06-15T08:24:21.157Z,100935.73
2019-06-15T08:27:29.987Z,100930.37
2019-06-15T08:30:43.189Z,100941.40
2019-06-15T08:33:52.037Z,100946.09
2019-06-15T08:37:00.708Z,100946.47
2019-06-15T08:40:11.388Z,100953.38
2019-06-15T08:43:20.190Z,100961.34
2019-06-15T08:46:29.007Z,100959.52
2019-06-15T08:49:36.194Z,100958.31
2019-06-15T08:52:44.931Z,100953.97
2019-06-15T08:56:01.911Z,100948.00
2019-06-15T08:59:10.422Z,100933.92
2019-06-15T09:02:19.136Z,100931.03
2019-06-15T09:05:27.914Z,100925.58
2019-06-15T09:08:36.668Z,100935.78
2019-06-15T09:11:45.309Z,100927.02
2019-06-15T09:15:03.192Z,100923.98
2019-06-15T09:18:12.160Z,100932.82
2019-06-15T09:21:20.870Z,100934.98
2019-06-15T09:24:30.020Z,100944.38
2019-06-15T09:27:47.963Z,100951.75
2019-06-15T09:30:56.664Z,100953.13
2019-06-15T09:34:18.089Z,100957.83
2019-06-15T09:37:15.819Z,100962.83
2019-06-15T09:40:24.910Z,100947.66
2019-06-15T09:43:34.006Z,100955.00
2019-06-15T09:46:52.016Z,100950.53
2019-06-15T09:50:00.793Z,100944.77
2019-06-15T09:53:18.975Z,100945.74
2019-06-15T09:56:27.677Z,100948.53
2019-06-15T09:59:38.364Z,100949.59
2019-06-15T10:02:47.256Z,100959.20
2019-06-15T10:06:06.078Z,100961.75
2019-06-15T10:09:14.823Z,100972.83
2019-06-15T10:12:23.570Z,100973.33
2019-06-15T10:15:32.264Z,100979.59
2019-06-15T10:18:40.988Z,100977.18
2019-06-15T10:21:59.078Z,100974.45
2019-06-15T10:25:17.224Z,100968.12
2019-06-15T10:28:35.650Z,100971.26
2019-06-15T10:31:53.782Z,100976.50
2019-06-15T10:35:02.475Z,100979.59
2019-06-15T10:38:11.427Z,100979.84
2019-06-15T10:41:20.133Z,100990.22
2019-06-15T10:44:29.497Z,100992.77
2019-06-15T10:47:38.308Z,100996.55
2019-06-15T10:50:49.192Z,100997.72
2019-06-15T10:53:59.918Z,100996.74
2019-06-15T10:57:08.412Z,101005.02
2019-06-15T11:00:19.366Z,101011.34
2019-06-15T11:03:28.075Z,101014.88
2019-06-15T11:06:36.867Z,101012.95
2019-06-15T11:09:45.616Z,101015.95
2019-06-15T11:12:54.226Z,101019.67
2019-06-15T11:16:02.912Z,101023.30
2019-06-15T11:19:11.547Z,101023.06
2019-06-15T11:22:20.176Z,101024.09
2019-06-15T11:25:28.814Z,101026.89
2019-06-15T11:28:37.575Z,101028.54
2019-06-15T11:31:46.277Z,101028.59
2019-06-15T11:35:04.237Z,101024.61
2019-06-15T11:38:22.457Z,101022.36
2019-06-15T11:41:31.133Z,101034.80
2019-06-15T11:44:39.776Z,101025.82
2019-06-15T11:47:48.576Z,101030.86
2019-06-15T11:50:57.196Z,101039.97
2019-06-15T11:54:06.304Z,101044.13
2019-06-15T11:57:15.034Z,101041.92
2019-06-15T12:00:31.883Z,101047.42
2019-06-15T12:03:40.597Z,101053.62
2019-06-15T12:06:49.263Z,101052.32
2019-06-15T12:09:57.988Z,101060.65
2019-06-15T12:13:07.798Z,101064.77
2019-06-15T12:16:16.543Z,101071.63
2019-06-15T12:19:34.365Z,101066.30
2019-06-15T12:22:43.109Z,101081.94
2019-06-15T12:25:51.838Z,101086.50
2019-06-15T12:29:00.526Z,101079.12
2019-06-15T12:32:09.136Z,101089.30
2019-06-15T12:35:17.773Z,101090.20
2019-06-15T12:38:26.424Z,101095.30
2019-06-15T12:41:35.155Z,101095.16
2019-06-15T12:44:43.790Z,101098.09
2019-06-15T12:47:52.555Z,101102.22
2019-06-15T12:51:01.441Z,101106.77
2019-06-15T12:54:10.482Z,101102.96
2019-06-15T12:57:19.184Z,101110.92
2019-06-15T13:00:36.042Z,101109.97
2019-06-15T13:03:44.724Z,101112.42
2019-06-15T13:06:53.544Z,101115.33
2019-06-15T13:10:02.283Z,101114.66
2019-06-15T13:13:11.370Z,101122.92
2019-06-15T13:16:20.079Z,101116.78
2019-06-15T13:19:28.751Z,101123.83
2019-06-15T13:22:37.585Z,101120.11
2019-06-15T13:25:46.734Z,101124.61
2019-06-15T13:28:55.354Z,101127.36
2019-06-15T13:32:04.184Z,101134.77
2019-06-15T13:35:12.939Z,101142.73
2019-06-15T13:38:21.714Z,101145.36
2019-06-15T13:41:31.153Z,101152.41
2019-06-15T13:44:39.810Z,101156.97
2019-06-15T13:47:48.458Z,101165.22
2019-06-15T13:50:57.103Z,101167.14
2019-06-15T13:54:05.849Z,101169.50
2019-06-15T13:57:14.517Z,101176.63
2019-06-15T14:00:23.524Z,101171.88
2019-06-15T14:03:32.272Z,101182.48
2019-06-15T14:06:40.909Z,101184.17
2019-06-15T14:09:49.620Z,101183.97
2019-06-15T14:12:58.262Z,101183.25
2019-06-15T14:16:07.184Z,101181.05
2019-06-15T14:19:16.884Z,101185.44
2019-06-15T14:22:25.656Z,101184.01
2019-06-15T14:25:34.379Z,101189.37
2019-06-15T14:28:43.021Z,101203.24
2019-06-15T14:31:52.079Z,101210.72
2019-06-15T14:35:00.803Z,101198.52
2019-06-15T14:38:09.604Z,101205.11
2019-06-15T14:41:18.209Z,101193.63
2019-06-15T14:44:26.979Z,101215.38
2019-06-15T14:47:35.779Z,101210.97
2019-06-15T14:50:44.382Z,101212.08
2019-06-15T14:53:56.293Z,101213.46
2019-06-15T14:57:03.791Z,101210.75
2019-06-15T15:00:13.849Z,101218.80
2019-06-15T15:03:22.580Z,101238.15
2019-06-15T15:06:31.192Z,101235.10
2019-06-15T15:09:39.811Z,101239.16
2019-06-15T15:12:47.033Z,101220.70
2019-06-15T15:15:57.003Z,101240.31
2019-06-15T15:19:16.627Z,101236.15
2019-06-15T15:22:26.558Z,101248.77
2019-06-15T15:25:36.772Z,101240.81
2019-06-15T15:28:47.044Z,101229.23
2019-06-15T15:31:57.434Z,101235.86
2019-06-15T15:35:06.614Z,101222.34
2019-06-15T15:38:15.475Z,101225.62
2019-06-15T15:41:26.430Z,101216.50
2019-06-15T15:44:35.966Z,101221.80
2019-06-15T15:47:44.630Z,101227.38
2019-06-15T15:50:53.572Z,101224.70
2019-06-15T15:54:02.752Z,101239.63
2019-06-15T15:57:11.612Z,101246.19
2019-06-15T16:00:31.437Z,101252.84
2019-06-15T16:03:40.054Z,101270.45
2019-06-15T16:06:48.958Z,101273.61
2019-06-15T16:09:57.883Z,101275.28
2019-06-15T16:13:06.813Z,101265.42
2019-06-15T16:16:16.403Z,101279.42
2019-06-15T16:19:26.280Z,101279.41
2019-06-15T16:22:36.969Z,101290.98
2019-06-15T16:25:56.247Z,101295.92
2019-06-15T16:29:06.915Z,101304.11
2019-06-15T16:32:26.396Z,101308.53
2019-06-15T16:35:36.076Z,101315.35
2019-06-15T16:38:47.012Z,101317.27
2019-06-15T16:41:56.197Z,101323.05
2019-06-15T16:45:06.791Z,101328.81
2019-06-15T16:48:26.134Z,101331.66
2019-06-15T16:51:36.154Z,101342.94
2019-06-15T16:54:47.076Z,101350.59
2019-06-15T16:57:56.618Z,101349.44
2019-06-15T17:01:06.543Z,101357.09
2019-06-15T17:04:16.591Z,101357.05
2019-06-15T17:07:26.270Z,101360.57
2019-06-15T17:10:40.772Z,101366.00
2019-06-15T17:13:49.694Z,101360.63
2019-06-15T17:16:58.492Z,101368.15
2019-06-15T17:20:08.932Z,101378.25
2019-06-15T17:23:17.880Z,101381.66
2019-06-15T17:26:26.621Z,101395.42
2019-06-15T17:29:35.224Z,101385.84
2019-06-15T17:32:43.975Z,101396.25
2019-06-15T17:35:59.914Z,101406.06
2019-06-15T17:39:03.151Z,101397.34
2019-06-15T17:42:12.036Z,101400.91
2019-06-15T17:45:20.877Z,101400.91
2019-06-15T17:48:29.638Z,101409.97
2019-06-15T17:51:38.479Z,101410.45
2019-06-15T17:54:46.710Z,101413.45
2019-06-15T17:57:57.688Z,101404.66
2019-06-15T18:01:06.541Z,101422.32
2019-06-15T18:04:37.241Z,101419.70
2019-06-15T18:07:43.685Z,101423.82
2019-06-15T18:10:52.380Z,101437.38
2019-06-15T18:14:01.160Z,101442.44
2019-06-15T18:17:10.540Z,101450.02
2019-06-15T18:20:30.167Z,101450.31
2019-06-15T18:23:48.345Z,101450.93
2019-06-15T18:26:59.943Z,101459.21
2019-06-15T18:30:08.665Z,101465.91
2019-06-15T18:33:17.480Z,101467.52
2019-06-15T18:36:26.672Z,101468.96
2019-06-15T18:39:36.907Z,101469.62
2019-06-15T18:42:46.432Z,101459.19
2019-06-15T18:45:56.810Z,101458.39
2019-06-15T18:49:06.717Z,101467.21
2019-06-15T18:52:17.134Z,101453.36
2019-06-15T18:55:26.906Z,101467.73
2019-06-15T18:58:37.241Z,101457.52
2019-06-15T19:01:46.949Z,101468.70
2019-06-15T19:04:56.635Z,101480.52
2019-06-15T19:08:06.578Z,101474.81
2019-06-15T19:11:16.348Z,101467.62
2019-06-15T19:14:24.248Z,101478.38
2019-06-15T19:17:33.069Z,101472.73
2019-06-15T19:20:41.718Z,101481.70
2019-06-15T19:23:59.533Z,101488.64
2019-06-15T19:27:08.260Z,101487.80
2019-06-15T19:30:17.195Z,101486.08
2019-06-15T19:33:26.790Z,101479.83
2019-06-15T19:36:36.668Z,101504.98
2019-06-15T19:39:46.400Z,101510.89
2019-06-15T19:42:57.063Z,101522.23
2019-06-15T19:46:06.754Z,101519.78
2019-06-15T19:49:17.099Z,101521.97
2019-06-15T19:52:26.057Z,101533.12
2019-06-15T19:55:36.444Z,101542.17
2019-06-15T19:58:46.146Z,101550.80
2019-06-15T20:02:06.650Z,101553.52
2019-06-15T20:05:15.551Z,101567.12
2019-06-15T20:08:26.498Z,101564.20
2019-06-15T20:11:36.851Z,101569.97
2019-06-15T20:14:46.412Z,101577.02
2019-06-15T20:17:56.954Z,101593.91
2019-06-15T20:21:07.322Z,101585.39
2019-06-15T20:24:19.049Z,101596.11
2019-06-15T20:27:27.152Z,101606.73
2019-06-15T20:30:36.968Z,101617.72
2019-06-15T20:33:46.727Z,101611.53
2019-06-15T20:37:04.920Z,101609.30
2019-06-15T20:40:16.377Z,101613.63
2019-06-15T20:43:33.621Z,101617.88
2019-06-15T20:46:42.280Z,101629.38
2019-06-15T20:49:51.072Z,101640.09
2019-06-15T20:52:59.882Z,101645.77
2019-06-15T20:56:08.563Z,101651.77
2019-06-15T20:59:17.304Z,101665.84
2019-06-15T21:02:26.980Z,101667.21
2019-06-15T21:05:41.022Z,101683.91
2019-06-15T21:08:47.015Z,101692.88
2019-06-15T21:11:55.929Z,101699.18
2019-06-15T21:15:07.137Z,101702.19
2019-06-15T21:18:16.594Z,101708.39
2019-06-15T21:21:27.502Z,101721.44
2019-06-15T21:24:37.327Z,101716.76
2019-06-15T21:27:47.438Z,101714.84
2019-06-15T21:30:56.667Z,101721.02
2019-06-15T21:34:06.822Z,101729.31
2019-06-15T21:37:16.840Z,101723.54
2019-06-15T21:40:27.398Z,101729.31
2019-06-15T21:43:36.431Z,101717.74
2019-06-15T21:46:46.851Z,101735.63
2019-06-15T21:49:56.057Z,101736.38
2019-06-15T21:53:06.958Z,101743.71
2019-06-15T21:59:17.762Z,101749.72
2019-06-15T22:02:26.987Z,101755.27
2019-06-15T22:05:36.871Z,101743.50
2019-06-15T22:08:44.047Z,101764.28
2019-06-15T22:11:52.903Z,101762.20
2019-06-15T22:15:01.860Z,101762.41
2019-06-15T22:18:10.766Z,101758.70
2019-06-15T22:21:19.587Z,101766.80
2019-06-15T22:24:28.524Z,101755.48
2019-06-15T22:27:37.128Z,101761.98
2019-06-15T22:30:46.274Z,101749.17
2019-06-15T22:33:56.654Z,101761.77
2019-06-15T22:37:06.912Z,101764.19
2019-06-15T22:40:16.663Z,101754.14
2019-06-15T22:43:27.329Z,101759.27
2019-06-15T22:46:36.056Z,101762.82
2019-06-15T22:49:46.780Z,101771.53
2019-06-15T22:52:56.465Z,101780.56
2019-06-15T22:56:06.598Z,101769.64
2019-06-15T22:59:16.914Z,101762.22
2019-06-15T23:02:38.504Z,101775.85
2019-06-15T23:05:47.359Z,101781.95
2019-06-15T23:08:56.608Z,101776.08
2019-06-15T23:12:07.190Z,101779.77
2019-06-15T23:15:17.456Z,101785.22
2019-06-15T23:18:26.371Z,101782.68
2019-06-15T23:21:37.326Z,101781.11
2019-06-15T23:24:46.810Z,101791.61
2019-06-15T23:27:56.427Z,101803.07
2019-06-15T23:31:18.704Z,101807.66
2019-06-15T23:34:27.606Z,101812.28
2019-06-15T23:37:37.569Z,101814.38
2019-06-15T23:40:46.746Z,101820.88
2019-06-15T23:43:55.972Z,101819.75
2019-06-15T23:47:04.846Z,101813.45
2019-06-15T23:50:13.538Z,101809.77
2019-06-15T23:53:43.013Z,101808.61
2019-06-15T23:56:52.310Z,101810.98
